Aeroporto :
LOGIN :

Iscrizione | Disclaimer

   EN    FR    IT 

 










Sommario :    VFR   VFR Marginale   IFR   IFR Intensivo   IFR Molto Intensivo
Visibilità : 
Base nubi : 
>= 8 km
>= 3000ft
5 / 8 km
1000 / 3000 ft
1500m / 5 km
500 / 1000 ft
800 / 1500m
200 / 500 ft
< 800m
< 200 ft
Simboli :   Temporali  Nebbia  Neve Forte  Precipitazioni Forti  Vento > 20 kt
SIGMETs :   Varie  Temporali  Ghiacco  Turbolenza  Onda orograficha  Ceneri Vulcaniche







- Altitudine del aeroporto : 82 ft
- Codice IATA : QIE
- Carte del aeroporto


LFMI - Istres

ULTIMO METAR :
  • 190000Z AUTO 06003KT 9999 BKN037 06/04 Q1024 NOSIG

METARs OBSOLETI :
  • 182330Z AUTO 07005KT 9999 BKN037 06/05 Q1024 NOSIG
  • 182300Z AUTO 08006KT 9000 BKN038 BKN140 06/04 Q1024 NOSIG
  • 182230Z AUTO 07006KT 9000 FEW038 BKN140 BKN160 06/04 Q1024 NOSIG
  • 182200Z AUTO 08004KT CAVOK 06/04 Q1024 NOSIG
  • 182130Z AUTO 06004KT CAVOK 06/04 Q1024 NOSIG

TAF TAF LFMI
Valido dal 18 a 21 ore il 19 a 21 ore UTC


182000Z 1821/1921 06005KT 9999 BKN015
BECMG 1902/1904 VRB04KT
BECMG 1906/1908 SCT020
TEMPO 1915/1920 BKN030
Nessun NOTAM noto per questo aeroporto.



MetMap, La meteo Aeronautica in un colpo d'occhio ! - Copyright ORBIFLY Dicembre 2007 - Disclaimer

ORBIFLY MET'MAP TEAM :

Programmazione e sviluppo : Alexandra Zaïnal
Concezione e sviluppo : Baudouin d'Aumeries
Co-Programmazione e sviluppo : Marc-Olivier Méhu
Supporto tecnico e logistico : Manuel Goepfert
Aiuto per la traduzione : Arnaldo La Scala

Contatto : metmap@orbifly.com




FONTI E CREDITI :

   NOAA